Raleigh Durham International Airport
KRDU : rendu visible

Aérodrome :











RETROUVEZ-NOUS SUR...

 
LOGIN :

S'inscrire | Disclaimer

   EN    FR    IT 

 









Légende :    VFR   VFR Marginal   IFR   IFR Intensif   IFR Très Intensif
Visi : 
Plafond : 
>= 8 km
>= 3000ft
5 à 8 km
1000 à 3000 ft
1500m à 5 km
500 à 1000 ft
800 à 1500m
200 à 500 ft
< 800m
< 200 ft
Symboles :   Orages  Brouillard  Fortes neiges  Fortes précipitations  Vent > 20 kt







- Altitude de l'aérodrome : 435 ft
- Code IATA : RDU


KRDU - Raleigh Durham International

DERNIER METAR :
  • 241951Z 24006KT 10SM FEW075 FEW180 BKN250 28/09 A2987 RMK AO2 SLP109 T02830094

METARs EXPIRÉS :
  • 241851Z 10SM FEW065 FEW170 BKN250 28/12 A2989 RMK AO2 SLP118 T02780122
  • 241751Z 00000KT 10SM FEW100 SCT170 BKN250 26/13 A2991 RMK AO2 SLP125 T02610128 10272 20161 58010

TAF KRDU
Valide du 24 à 18h jusqu'au 25 à 18h UTC


241720Z 2418/2518 VRB06KT P6SM BKN170 BKN250
FM251300 24005KT P6SM BKN200
FIR KZDC / Amérique du Nord



MET'MAP, la Météo Aéronautique d'un coup d'oeil ! - Copyright ORBIFLY Décembre 2007 - Disclaimer

ORBIFLY MET'MAP TEAM :

Programmation & Développement : Alexandra Zaïnal
Conception & Développement : Baudouin d'Aumeries
Co-Programmation & Développement : Marc-Olivier Méhu
Soutien technique & logistique : Manuel Goepfert

Contact : metmap@orbifly.com




SOURCES & CREDITS :

   NOAA       Earth
Advisory